Time;durP1;ratioP1;P1;durP2;ratioP2;P2;SDS_P1;SDS_P2;PMS_P1;PMS_P2;Temp;Humidity;BMP_temperature;BMP_pressure;BME280_temperature;BME280_humidity;BME280_pressure;Samples;Min_cycle;Max_cycle;Signal;HPM_P1;HPM_P2
2024/04/19 00:00:27;;;;;;;0.80;0.70;;;;;;;13.47;100.00;99062.46;106700;1256;72702;-81
2024/04/19 00:02:55;;;;;;;0.70;0.60;;;;;;;13.84;100.00;99064.94;106553;1254;61195;-86
2024/04/19 00:05:22;;;;;;;1.80;0.60;;;;;;;13.91;100.00;99071.58;106453;1251;61368;-80
2024/04/19 00:07:50;;;;;;;0.50;0.50;;;;;;;14.08;100.00;99074.77;106700;1254;73476;-87
2024/04/19 00:10:17;;;;;;;1.00;0.70;;;;;;;15.37;100.00;99076.52;106602;1251;68888;-82
2024/04/19 00:12:45;;;;;;;0.50;0.50;;;;;;;16.35;100.00;99078.05;106672;1254;72246;-80
2024/04/19 00:15:12;;;;;;;2.80;0.40;;;;;;;16.50;100.00;99075.80;106564;1251;61771;-86
2024/04/19 00:17:40;;;;;;;1.40;0.60;;;;;;;15.31;100.00;99084.73;106689;1251;61164;-85
2024/04/19 00:20:27;;;;;;;1.40;0.60;;;;;;;14.64;100.00;99086.93;106593;1251;74648;-80
2024/04/19 00:23:07;;;;;;;0.70;0.40;;;;;;;13.34;100.00;99091.84;106668;1251;67332;-81
2024/04/19 00:25:35;;;;;;;0.50;0.50;;;;;;;14.13;100.00;99087.04;106404;1254;71432;-85
2024/04/19 00:28:02;;;;;;;1.90;0.40;;;;;;;13.98;100.00;99088.60;106681;1251;61799;-87
2024/04/19 00:30:30;;;;;;;2.10;0.60;;;;;;;13.46;100.00;99086.45;106530;1254;61416;-86
2024/04/19 00:32:58;;;;;;;0.80;0.40;;;;;;;14.22;100.00;99086.58;106611;1254;73434;-81
2024/04/19 00:35:40;;;;;;;1.80;0.70;;;;;;;13.68;100.00;99088.27;106674;1256;67616;-86
2024/04/19 00:38:07;;;;;;;0.40;0.40;;;;;;;12.92;100.00;99093.18;106605;1254;72694;-86
2024/04/19 00:40:35;;;;;;;0.60;0.40;;;;;;;13.06;100.00;99099.97;106525;1256;61767;-86
2024/04/19 00:43:03;;;;;;;0.30;0.30;;;;;;;13.25;100.00;99101.76;106680;1254;61230;-81
2024/04/19 00:45:50;;;;;;;0.20;0.20;;;;;;;13.08;100.00;99109.45;106507;1252;73396;-81
2024/04/19 00:48:20;;;;;;;0.70;0.40;;;;;;;13.63;100.00;99110.56;106512;1254;68510;-86
2024/04/19 00:50:56;;;;;;;0.30;0.30;;;;;;;13.26;100.00;99113.95;106491;1256;71457;-80
2024/04/19 00:53:26;;;;;;;0.30;0.30;;;;;;;13.74;100.00;99111.30;106410;1253;61618;-86
2024/04/19 00:56:00;;;;;;;0.80;0.30;;;;;;;14.28;100.00;99111.61;106514;1256;61371;-85
2024/04/19 00:58:27;;;;;;;1.30;0.30;;;;;;;15.28;100.00;99115.72;106591;1254;74627;-87
2024/04/19 01:01:04;;;;;;;0.30;0.30;;;;;;;16.02;100.00;99110.49;106354;1254;68559;-85
2024/04/19 01:03:32;;;;;;;0.30;0.30;;;;;;;14.82;100.00;99114.33;106417;1254;72721;-86
2024/04/19 01:06:00;;;;;;;0.50;0.40;;;;;;;14.69;100.00;99121.77;106524;1256;61342;-81
2024/04/19 01:08:28;;;;;;;0.30;0.20;;;;;;;14.80;100.00;99120.56;106586;1251;61237;-81
2024/04/19 01:10:55;;;;;;;0.20;0.20;;;;;;;15.37;100.00;99122.33;106441;1253;73425;-81
2024/04/19 01:13:23;;;;;;;0.60;0.30;;;;;;;14.44;100.00;99122.30;106564;1251;66625;-81
2024/04/19 01:15:51;;;;;;;1.10;0.30;;;;;;;13.73;100.00;99128.20;106397;1254;74693;-80
2024/04/19 01:18:19;;;;;;;0.30;0.30;;;;;;;12.55;100.00;99137.90;106310;1256;61756;-80
2024/04/19 01:20:46;;;;;;;1.20;0.30;;;;;;;14.16;100.00;99126.25;106600;1251;61336;-81
2024/04/19 01:23:14;;;;;;;0.50;0.50;;;;;;;13.67;100.00;99128.65;106605;1254;74743;-86
2024/04/19 01:25:42;;;;;;;0.30;0.20;;;;;;;12.87;100.00;99134.93;106644;1253;67209;-87
2024/04/19 01:28:11;;;;;;;0.20;0.20;;;;;;;13.03;100.00;99128.24;106349;1253;71154;-85
2024/04/19 01:30:40;;;;;;;0.30;0.30;;;;;;;13.95;100.00;99122.66;106552;1254;61304;-82
2024/04/19 01:33:07;;;;;;;0.30;0.30;;;;;;;15.35;100.00;99118.23;106601;1251;61384;-86
2024/04/19 01:35:35;;;;;;;0.20;0.20;;;;;;;14.86;100.00;99123.45;106682;1256;73419;-85
2024/04/19 01:38:03;;;;;;;0.30;0.30;;;;;;;14.34;100.00;99129.09;106659;1254;67311;-85
2024/04/19 01:40:31;;;;;;;0.30;0.30;;;;;;;15.48;100.00;99132.86;106590;1253;72894;-82
2024/04/19 01:42:58;;;;;;;0.30;0.20;;;;;;;15.03;100.00;99132.41;106694;1253;61499;-81
2024/04/19 01:45:25;;;;;;;0.40;0.20;;;;;;;14.47;100.00;99138.20;106413;1251;61310;-81
2024/04/19 01:47:53;;;;;;;1.80;0.40;;;;;;;13.99;100.00;99141.27;106469;1254;74766;-81
2024/04/19 01:50:21;;;;;;;0.90;0.30;;;;;;;15.57;100.00;99140.00;106578;1251;69009;-81
2024/04/19 01:52:48;;;;;;;0.30;0.30;;;;;;;15.11;100.00;99140.61;106636;1251;72705;-81
2024/04/19 01:55:17;;;;;;;0.30;0.30;;;;;;;15.33;100.00;99143.84;107049;1251;61451;-82
2024/04/19 01:57:47;;;;;;;0.40;0.40;;;;;;;14.59;100.00;99146.03;106498;1257;61450;-81
2024/04/19 02:00:15;;;;;;;0.40;0.40;;;;;;;15.11;100.00;99150.52;106605;1257;74759;-80
2024/04/19 02:02:43;;;;;;;0.30;0.30;;;;;;;15.35;100.00;99154.33;106521;1254;67288;-80
2024/04/19 02:05:10;;;;;;;1.30;0.40;;;;;;;14.16;100.00;99160.61;106446;1251;74802;-80
2024/04/19 02:07:38;;;;;;;0.30;0.30;;;;;;;13.00;100.00;99169.02;106622;1257;61276;-85
2024/04/19 02:10:07;;;;;;;0.30;0.30;;;;;;;13.31;100.00;99165.17;106436;1252;61896;-80
2024/04/19 02:12:34;;;;;;;0.30;0.30;;;;;;;13.66;100.00;99161.73;106497;1254;74894;-86
2024/04/19 02:15:02;;;;;;;0.70;0.50;;;;;;;13.09;100.00;99167.26;106421;1256;67594;-87
2024/04/19 02:17:30;;;;;;;0.50;0.40;;;;;;;12.96;100.00;99171.32;106669;1251;72718;-86
2024/04/19 02:19:57;;;;;;;0.50;0.30;;;;;;;12.34;100.00;99173.66;106464;1251;61262;-85
2024/04/19 02:22:25;;;;;;;0.50;0.40;;;;;;;13.15;100.00;99173.52;106555;1257;61145;-81
2024/04/19 02:24:53;;;;;;;0.80;0.50;;;;;;;11.87;100.00;99180.15;106570;1254;74598;-84
2024/04/19 02:32:53;;;;;;;0.40;0.30;;;;;;;14.18;100.00;99186.05;106636;1253;61447;-86
2024/04/19 02:35:21;;;;;;;1.00;0.60;;;;;;;13.64;100.00;99193.70;106405;1254;61251;-80
2024/04/19 02:37:48;;;;;;;0.40;0.40;;;;;;;11.95;100.00;99204.38;106653;1256;74718;-86
2024/04/19 02:40:16;;;;;;;1.60;0.50;;;;;;;12.40;100.00;99207.49;106475;1254;67682;-80
2024/04/19 02:42:43;;;;;;;1.00;0.60;;;;;;;12.44;100.00;99208.63;106408;1251;71303;-85
2024/04/19 02:45:11;;;;;;;0.80;0.60;;;;;;;12.01;100.00;99215.05;106531;1253;61358;-86
2024/04/19 02:47:39;;;;;;;0.50;0.50;;;;;;;12.16;100.00;99221.30;106572;1254;61310;-86
2024/04/19 02:50:06;;;;;;;0.50;0.50;;;;;;;11.89;100.00;99228.50;106523;1253;74710;-86
2024/04/19 02:52:34;;;;;;;1.40;0.80;;;;;;;11.84;100.00;99235.34;106406;1256;68526;-87
2024/04/19 02:55:01;;;;;;;1.20;0.90;;;;;;;11.80;100.00;99234.52;106751;1253;71407;-87
2024/04/19 02:57:32;;;;;;;0.70;0.60;;;;;;;12.35;100.00;99236.93;106582;1254;61776;-87
2024/04/19 03:00:00;;;;;;;1.30;0.80;;;;;;;11.87;100.00;99242.26;106394;1251;61154;-86
2024/04/19 03:02:43;;;;;;;1.80;0.80;;;;;;;12.40;100.00;99241.19;106572;1256;74710;-81
2024/04/19 03:05:11;;;;;;;1.40;0.80;;;;;;;11.79;100.00;99247.19;106467;1251;70581;-88
2024/04/19 03:07:39;;;;;;;1.30;0.70;;;;;;;11.31;100.00;99252.52;106449;1254;71448;-81
2024/04/19 03:10:06;;;;;;;1.90;0.90;;;;;;;12.64;100.00;99252.80;106582;1256;61285;-87
2024/04/19 03:12:34;;;;;;;1.20;0.80;;;;;;;13.14;100.00;99253.34;106638;1256;61266;-79
2024/04/19 03:15:02;;;;;;;2.40;0.70;;;;;;;12.61;100.00;99256.23;106665;1257;74734;-87
2024/04/19 03:17:29;;;;;;;1.20;0.80;;;;;;;13.02;100.00;99258.97;106696;1250;68968;-88
2024/04/19 03:19:57;;;;;;;1.00;0.70;;;;;;;13.17;100.00;99261.09;106525;1251;72790;-80
2024/04/19 03:22:24;;;;;;;2.00;1.10;;;;;;;12.44;100.00;99265.24;106788;1254;66295;-88
2024/04/19 03:24:52;;;;;;;1.30;0.70;;;;;;;12.49;100.00;99272.17;106574;1253;61211;-86
2024/04/19 03:27:19;;;;;;;1.70;0.80;;;;;;;12.54;100.00;99275.00;106699;1251;73436;-80
2024/04/19 03:29:56;;;;;;;0.80;0.80;;;;;;;12.42;100.00;99281.88;106571;1257;68058;-82
2024/04/19 03:32:24;;;;;;;1.10;0.80;;;;;;;12.55;100.00;99282.20;106561;1253;72731;-80
2024/04/19 03:34:52;;;;;;;1.30;0.90;;;;;;;12.26;100.00;99285.59;106553;1251;61706;-81
2024/04/19 03:37:19;;;;;;;0.80;0.80;;;;;;;11.92;100.00;99285.00;106638;1251;61305;-82
2024/04/19 03:39:47;;;;;;;1.40;1.20;;;;;;;12.31;100.00;99293.00;107061;1251;73469;-82
2024/04/19 03:42:18;;;;;;;2.80;1.00;;;;;;;12.91;100.00;99295.05;107064;1251;67290;-87
2024/04/19 03:47:35;;;;;;;1.90;1.10;;;;;;;14.88;100.00;99283.67;106575;1256;61371;-82
2024/04/19 03:50:03;;;;;;;2.30;1.10;;;;;;;12.97;100.00;99296.12;106442;1254;61454;-80
2024/04/19 03:52:31;;;;;;;1.70;0.70;;;;;;;13.23;100.00;99297.98;106534;1254;73696;-80
2024/04/19 03:54:58;;;;;;;1.30;1.20;;;;;;;12.33;100.00;99301.55;106463;1257;67357;-79
2024/04/19 03:57:26;;;;;;;1.00;0.80;;;;;;;12.82;100.00;99303.61;106602;1251;74513;-86
2024/04/19 03:59:53;;;;;;;1.20;1.10;;;;;;;11.44;100.00;99312.66;106517;1251;62061;-80
2024/04/19 04:02:21;;;;;;;1.10;1.00;;;;;;;11.51;100.00;99314.70;106747;1254;61245;-79
2024/04/19 04:04:55;;;;;;;1.60;1.10;;;;;;;11.96;100.00;99313.31;106428;1252;74460;-87
2024/04/19 04:07:22;;;;;;;3.30;1.30;;;;;;;11.84;100.00;99313.91;106467;1254;68537;-82
2024/04/19 04:09:49;;;;;;;1.20;1.00;;;;;;;12.80;100.00;99315.17;106621;1256;72732;-85
2024/04/19 04:12:17;;;;;;;1.40;1.00;;;;;;;13.63;100.00;99319.05;106646;1251;61279;-81
2024/04/19 04:14:45;;;;;;;1.60;1.20;;;;;;;14.26;100.00;99318.33;106678;1251;61182;-80
2024/04/19 04:17:12;;;;;;;1.20;1.10;;;;;;;14.02;100.00;99323.52;106457;1251;74634;-80
2024/04/19 04:19:41;;;;;;;1.90;1.20;;;;;;;15.31;100.00;99319.73;106738;1254;67270;-85
2024/04/19 04:22:08;;;;;;;1.30;1.20;;;;;;;15.16;100.00;99326.91;106543;1254;72461;-85
2024/04/19 04:24:36;;;;;;;1.50;1.40;;;;;;;14.45;100.00;99332.50;106589;1256;61182;-82
2024/04/19 04:27:04;;;;;;;2.60;1.30;;;;;;;13.83;100.00;99337.77;106703;1256;61324;-80
2024/04/19 04:29:32;;;;;;;1.20;1.00;;;;;;;14.26;100.00;99340.34;106527;1256;73422;-85
2024/04/19 04:31:59;;;;;;;1.30;1.20;;;;;;;14.54;100.00;99345.57;106328;1251;67647;-85
2024/04/19 04:34:27;;;;;;;1.70;1.30;;;;;;;15.53;100.00;99343.84;106486;1255;72739;-87
2024/04/19 04:36:55;;;;;;;1.70;1.50;;;;;;;15.66;100.00;99348.77;106339;1255;61745;-84
2024/04/19 04:39:22;;;;;;;1.80;1.50;;;;;;;16.28;100.00;99347.92;106685;1256;61202;-85
2024/04/19 04:41:50;;;;;;;2.70;1.80;;;;;;;16.70;100.00;99355.25;106491;1251;74629;-88
2024/04/19 04:44:17;;;;;;;1.60;1.50;;;;;;;15.54;100.00;99356.68;106503;1256;67144;-85
2024/04/19 04:46:45;;;;;;;1.90;1.70;;;;;;;15.26;100.00;99366.98;106644;1256;72405;-85
2024/04/19 04:49:12;;;;;;;1.90;1.70;;;;;;;14.60;100.00;99377.16;106563;1254;61762;-84
2024/04/19 04:51:40;;;;;;;3.60;1.90;;;;;;;15.54;100.00;99380.85;106477;1256;61183;-85
2024/04/19 04:54:07;;;;;;;3.00;1.70;;;;;;;15.01;100.00;99381.23;106516;1251;74666;-84
2024/04/19 04:56:35;;;;;;;2.10;1.80;;;;;;;14.55;100.00;99392.71;106635;1254;70799;-86
2024/04/19 04:59:02;;;;;;;4.10;2.60;;;;;;;15.96;100.00;99386.43;106319;1254;72684;-85
2024/04/19 05:01:30;;;;;;;4.50;3.00;;;;;;;16.85;100.00;99388.35;106368;1256;61322;-87
2024/04/19 05:03:58;;;;;;;2.60;2.30;;;;;;;17.42;100.00;99396.90;106584;1257;60634;-86
2024/04/19 05:06:26;;;;;;;3.30;2.20;;;;;;;17.23;100.00;99399.09;106557;1254;75830;-85
2024/04/19 05:08:53;;;;;;;5.30;2.80;;;;;;;16.46;100.00;99408.39;106397;1256;69591;-86
2024/04/19 05:11:21;;;;;;;3.40;2.40;;;;;;;17.47;100.00;99417.79;106510;1254;75236;-85
2024/04/19 05:13:48;;;;;;;5.20;2.70;;;;;;;17.51;100.00;99416.02;106493;1256;63369;-81
2024/04/19 05:16:16;;;;;;;4.30;2.80;;;;;;;17.07;100.00;99422.52;106418;1254;61269;-82
2024/04/19 05:18:46;;;;;;;4.10;2.90;;;;;;;17.50;100.00;99424.09;106510;1253;75234;-82
2024/04/19 05:21:13;;;;;;;3.70;3.40;;;;;;;17.55;100.00;99427.09;106504;1259;68031;-82
2024/04/19 05:23:41;;;;;;;3.20;2.90;;;;;;;18.52;97.33;99428.98;106551;1256;71473;-81
2024/04/19 05:26:08;;;;;;;4.30;2.80;;;;;;;18.28;95.09;99437.09;106364;1256;63920;-81
2024/04/19 05:28:36;;;;;;;3.60;2.80;;;;;;;17.08;99.46;99445.27;106632;1254;61340;-81
2024/04/19 05:31:04;;;;;;;4.00;3.00;;;;;;;15.50;100.00;99451.78;106411;1254;75408;-81
2024/04/19 05:33:31;;;;;;;3.80;2.90;;;;;;;16.32;100.00;99454.20;106831;1251;67312;-82
2024/04/19 05:35:59;;;;;;;3.90;3.00;;;;;;;16.64;100.00;99456.63;106661;1254;73065;-81
2024/04/19 05:38:27;;;;;;;3.70;3.10;;;;;;;17.61;100.00;99460.78;106792;1252;61317;-81
2024/04/19 05:40:54;;;;;;;5.60;3.30;;;;;;;16.96;100.00;99470.51;106753;1251;62369;-80
2024/04/19 05:43:22;;;;;;;4.80;3.20;;;;;;;17.44;100.00;99472.23;106629;1255;72790;-82
2024/04/19 05:45:49;;;;;;;6.00;3.90;;;;;;;16.32;100.00;99481.40;106685;1253;68845;-81
2024/04/19 05:48:17;;;;;;;7.70;4.70;;;;;;;18.42;98.65;99485.71;106543;1256;71417;-82
2024/04/19 05:50:49;;;;;;;6.40;4.90;;;;;;;16.92;100.00;99494.02;106719;1257;61720;-81
2024/04/19 05:53:16;;;;;;;5.60;4.00;;;;;;;17.43;100.00;99491.85;106666;1254;61122;-82
2024/04/19 05:55:44;;;;;;;6.30;3.50;;;;;;;17.43;100.00;99497.33;106519;1256;74997;-81
2024/04/19 05:58:15;;;;;;;4.00;3.00;;;;;;;17.50;100.00;99502.05;106663;1254;71004;-82
2024/04/19 06:00:43;;;;;;;4.30;3.80;;;;;;;19.09;95.59;99505.88;106689;1257;71470;-85
2024/04/19 06:03:10;;;;;;;6.80;3.90;;;;;;;18.88;95.47;99510.06;106719;1254;62605;-84
2024/04/19 06:05:38;;;;;;;4.80;3.90;;;;;;;18.72;95.93;99516.85;106540;1256;61244;-81
2024/04/19 06:08:07;;;;;;;6.80;4.30;;;;;;;18.50;98.85;99524.39;106676;1251;76761;-84
2024/04/19 06:10:35;;;;;;;5.40;3.70;;;;;;;18.37;99.17;99526.75;106688;1254;68422;-81
2024/04/19 06:13:03;;;;;;;7.10;4.00;;;;;;;18.75;99.65;99529.95;106577;1251;74920;-84
2024/04/19 06:15:30;;;;;;;7.20;4.10;;;;;;;19.36;96.30;99527.39;106423;1251;61217;-81
2024/04/19 06:17:59;;;;;;;4.90;3.60;;;;;;;18.64;97.75;99536.73;106407;1254;61329;-82
2024/04/19 06:20:27;;;;;;;4.40;3.20;;;;;;;18.92;97.86;99540.11;106543;1257;74952;-85
2024/04/19 06:22:54;;;;;;;6.30;3.70;;;;;;;18.40;99.47;99545.77;106798;1254;71497;-84
2024/04/19 06:25:22;;;;;;;6.50;3.50;;;;;;;19.08;93.82;99549.23;106524;1251;73385;-85
2024/04/19 06:27:50;;;;;;;4.90;3.00;;;;;;;17.55;100.00;99551.30;106604;1251;63727;-84
2024/04/19 06:30:17;;;;;;;4.00;3.20;;;;;;;17.87;100.00;99561.39;106775;1254;61226;-84
2024/04/19 06:32:45;;;;;;;5.30;3.20;;;;;;;18.82;98.81;99561.15;106514;1257;75016;-84
2024/04/19 06:35:16;;;;;;;4.40;3.50;;;;;;;19.50;90.23;99567.76;106473;1257;67231;-82
2024/04/19 06:37:43;;;;;;;4.50;3.20;;;;;;;19.33;92.87;99573.86;106573;1251;74593;-81
2024/04/19 06:40:11;;;;;;;4.90;3.60;;;;;;;19.39;88.69;99578.85;106601;1251;61874;-82
2024/04/19 06:42:39;;;;;;;4.70;3.00;;;;;;;17.95;100.00;99589.73;106657;1251;61271;-82
2024/04/19 06:45:06;;;;;;;3.70;3.30;;;;;;;17.65;100.00;99594.79;106516;1251;75331;-82
2024/04/19 06:47:34;;;;;;;4.80;3.20;;;;;;;18.98;97.99;99595.92;106620;1251;70983;-82
2024/04/19 06:50:02;;;;;;;6.60;3.30;;;;;;;19.04;92.65;99599.00;106628;1254;73582;-82
2024/04/19 06:52:30;;;;;;;4.50;3.20;;;;;;;17.67;100.00;99609.28;106543;1253;62120;-84
2024/04/19 06:54:57;;;;;;;3.20;2.80;;;;;;;17.30;100.00;99615.23;106369;1251;62148;-81
2024/04/19 06:57:25;;;;;;;4.90;3.00;;;;;;;19.28;95.99;99612.05;106624;1256;75875;-84
2024/04/19 06:59:53;;;;;;;4.10;2.80;;;;;;;19.68;92.61;99613.57;106849;1251;70565;-82
2024/04/19 07:02:37;;;;;;;4.70;3.60;;;;;;;19.89;88.77;99613.79;106700;1254;74821;-84
2024/04/19 07:05:05;;;;;;;6.10;2.80;;;;;;;18.99;97.72;99623.39;106834;1256;61074;-81
2024/04/19 07:07:33;;;;;;;4.30;2.80;;;;;;;21.39;77.36;99618.48;106969;1256;60999;-84
2024/04/19 07:10:00;;;;;;;5.10;3.20;;;;;;;20.00;81.04;99630.62;106611;1251;76893;-82
2024/04/19 07:12:31;;;;;;;5.10;3.00;;;;;;;19.49;90.63;99635.75;106603;1251;67224;-80
2024/04/19 07:14:59;;;;;;;3.30;2.90;;;;;;;19.01;87.53;99640.86;106778;1254;72119;-81
2024/04/19 07:17:27;;;;;;;5.20;3.40;;;;;;;19.19;86.54;99643.07;106727;1257;61218;-85
2024/04/19 07:19:56;;;;;;;5.70;3.90;;;;;;;21.13;71.64;99648.42;106715;1256;61301;-85
2024/04/19 07:22:24;;;;;;;5.60;3.50;;;;;;;21.03;66.61;99655.99;106693;1251;76908;-85
2024/04/19 07:24:52;;;;;;;4.90;3.60;;;;;;;19.92;80.51;99661.27;106708;1252;69006;-85
2024/04/19 07:27:19;;;;;;;6.40;3.30;;;;;;;20.05;83.01;99672.56;106653;1254;74885;-84
2024/04/19 07:29:47;;;;;;;3.70;3.20;;;;;;;20.35;77.54;99665.66;106689;1254;61295;-84
2024/04/19 07:32:15;;;;;;;4.30;2.80;;;;;;;20.05;75.39;99673.12;106621;1251;61724;-86
2024/04/19 07:34:42;;;;;;;5.00;3.60;;;;;;;20.03;79.96;99674.39;106987;1256;73508;-86
2024/04/19 07:37:10;;;;;;;8.80;3.60;;;;;;;19.68;79.94;99671.64;106533;1257;68278;-82
2024/04/19 07:39:37;;;;;;;7.20;4.20;;;;;;;20.15;76.55;99680.65;106735;1251;74983;-84
2024/04/19 07:42:05;;;;;;;6.80;4.00;;;;;;;20.32;77.14;99686.21;106779;1257;62388;-82
2024/04/19 07:44:33;;;;;;;4.10;3.20;;;;;;;20.97;76.17;99681.13;106401;1254;61154;-87
2024/04/19 07:47:00;;;;;;;4.80;3.40;;;;;;;20.65;77.08;99687.45;106597;1251;76821;-86
2024/04/19 07:49:28;;;;;;;3.80;2.80;;;;;;;21.15;68.90;99691.59;106555;1257;70949;-81
2024/04/19 07:51:56;;;;;;;3.40;2.90;;;;;;;21.81;64.21;99689.15;106766;1251;72305;-82
2024/04/19 07:54:24;;;;;;;3.50;3.00;;;;;;;21.25;69.11;99697.23;106549;1255;61364;-82
2024/04/19 07:56:51;;;;;;;3.30;2.50;;;;;;;20.67;71.78;99709.82;106624;1251;61084;-85
2024/04/19 07:59:19;;;;;;;5.00;2.80;;;;;;;22.37;62.77;99711.13;106475;1257;76970;-81
2024/04/19 08:01:46;;;;;;;6.30;3.50;;;;;;;23.71;53.83;99708.80;106540;1256;68618;-87
2024/04/19 08:04:14;;;;;;;5.80;3.50;;;;;;;22.22;55.03;99718.44;106571;1257;73041;-86
2024/04/19 08:06:42;;;;;;;3.60;3.00;;;;;;;22.74;52.24;99724.52;106431;1251;63668;-82
2024/04/19 08:09:10;;;;;;;5.50;3.20;;;;;;;21.61;56.69;99734.94;106673;1251;61643;-83
2024/04/19 08:11:39;;;;;;;5.00;2.80;;;;;;;21.83;55.43;99739.39;106870;1251;75626;-82
2024/04/19 08:14:07;;;;;;;3.70;3.30;;;;;;;20.68;63.36;99745.95;106647;1252;67314;-84
2024/04/19 08:16:34;;;;;;;3.20;2.80;;;;;;;20.59;63.86;99753.82;106594;1260;73589;-86
2024/04/19 08:19:02;;;;;;;4.70;2.90;;;;;;;20.94;62.25;99755.05;106604;1253;61691;-86
2024/04/19 08:21:29;;;;;;;4.50;3.00;;;;;;;20.86;64.94;99761.22;106742;1253;61279;-87
2024/04/19 08:23:57;;;;;;;4.50;3.10;;;;;;;19.90;69.86;99760.83;106605;1252;76801;-82
2024/04/19 08:26:26;;;;;;;4.20;2.70;;;;;;;19.62;71.58;99769.30;106510;1259;69176;-83
2024/04/19 08:28:53;;;;;;;4.30;2.90;;;;;;;20.78;61.57;99769.23;106657;1254;71504;-84
2024/04/19 08:31:22;;;;;;;3.30;2.90;;;;;;;20.94;61.69;99777.95;106693;1257;62629;-82
2024/04/19 08:33:50;;;;;;;4.10;3.00;;;;;;;21.71;56.05;99772.42;106383;1254;61180;-86
2024/04/19 08:36:17;;;;;;;4.70;3.40;;;;;;;21.93;54.07;99780.38;106570;1255;74600;-84
2024/04/19 08:38:45;;;;;;;4.10;3.30;;;;;;;21.35;56.27;99785.80;106457;1256;67763;-83
2024/04/19 08:41:13;;;;;;;4.80;3.40;;;;;;;19.29;72.60;99791.64;106428;1257;73567;-83
2024/04/19 08:43:40;;;;;;;5.40;3.10;;;;;;;20.37;70.07;99794.42;106573;1255;62676;-84
2024/04/19 08:46:08;;;;;;;4.30;3.20;;;;;;;20.11;72.03;99798.90;106798;1254;62252;-87
2024/04/19 08:48:36;;;;;;;4.40;2.90;;;;;;;20.58;70.85;99799.98;106838;1251;73534;-86
2024/04/19 08:51:04;;;;;;;6.30;3.30;;;;;;;21.14;63.35;99801.59;106444;1252;69787;-86
2024/04/19 08:53:32;;;;;;;3.60;3.20;;;;;;;20.41;65.90;99811.72;106436;1257;72680;-87
2024/04/19 08:55:59;;;;;;;3.80;3.20;;;;;;;20.41;70.29;99814.30;106683;1251;61257;-88
2024/04/19 08:58:27;;;;;;;4.30;3.30;;;;;;;19.97;68.58;99819.88;106610;1254;62237;-83
2024/04/19 09:00:54;;;;;;;4.60;3.30;;;;;;;19.98;66.97;99819.08;107038;1257;74732;-83
2024/04/19 09:03:22;;;;;;;4.70;3.40;;;;;;;19.74;67.10;99825.83;106710;1256;70281;-86
2024/04/19 09:05:50;;;;;;;5.30;3.80;;;;;;;19.69;68.16;99828.67;106920;1256;72549;-86
2024/04/19 09:08:18;;;;;;;6.40;3.80;;;;;;;19.27;72.08;99830.04;106368;1255;62095;-84
2024/04/19 09:10:45;;;;;;;4.70;3.80;;;;;;;20.48;63.20;99834.60;106675;1258;59972;-86
2024/04/19 09:13:13;;;;;;;4.60;3.30;;;;;;;21.66;55.93;99839.19;106412;1253;75163;-86
2024/04/19 09:15:41;;;;;;;4.20;3.50;;;;;;;21.79;54.91;99842.30;106786;1251;70002;-86
2024/04/19 09:18:08;;;;;;;3.90;3.30;;;;;;;22.20;52.34;99841.87;106562;1254;73811;-81
2024/04/19 09:20:36;;;;;;;4.00;3.00;;;;;;;22.29;49.90;99844.34;106669;1254;61358;-84
2024/04/19 09:23:03;;;;;;;4.60;3.40;;;;;;;22.11;48.42;99851.77;106867;1251;62252;-87
2024/04/19 09:25:31;;;;;;;4.10;2.80;;;;;;;23.12;49.44;99848.97;106723;1256;77327;-87
2024/04/19 09:27:58;;;;;;;4.10;2.60;;;;;;;22.89;52.03;99853.54;106514;1259;69765;-86
2024/04/19 09:30:26;;;;;;;5.80;3.10;;;;;;;22.73;51.55;99858.40;106588;1253;75030;-83
2024/04/19 09:32:54;;;;;;;3.40;3.10;;;;;;;22.32;50.20;99867.07;106533;1256;61324;-87
2024/04/19 09:35:24;;;;;;;5.20;2.90;;;;;;;22.15;50.69;99865.59;106573;1258;61170;-84
2024/04/19 09:37:53;;;;;;;5.30;3.20;;;;;;;22.80;49.87;99868.95;106627;1254;76879;-84
2024/04/19 09:40:21;;;;;;;6.10;4.40;;;;;;;22.20;54.15;99875.73;106544;1259;68701;-83
2024/04/19 09:42:52;;;;;;;6.50;2.70;;;;;;;21.86;54.80;99881.61;106692;1257;72023;-82
2024/04/19 09:45:20;;;;;;;4.20;2.90;;;;;;;22.05;53.18;99884.98;106867;1257;61269;-83
2024/04/19 09:47:52;;;;;;;4.50;3.40;;;;;;;22.24;51.96;99881.73;106726;1257;62318;-87
2024/04/19 09:50:19;;;;;;;6.60;3.60;;;;;;;22.53;47.83;99884.05;106717;1251;75690;-84
2024/04/19 09:52:47;;;;;;;5.20;3.40;;;;;;;22.94;49.26;99886.08;106402;1260;70763;-83
2024/04/19 09:55:21;;;;;;;4.30;3.40;;;;;;;23.67;46.75;99886.54;106423;1259;72607;-87
2024/04/19 09:57:49;;;;;;;3.40;2.90;;;;;;;23.19;50.10;99896.44;106642;1266;62613;-84
2024/04/19 10:00:17;;;;;;;4.10;3.00;;;;;;;24.75;43.77;99897.70;106681;1251;62373;-82
2024/04/19 10:02:45;;;;;;;3.90;2.70;;;;;;;23.94;43.45;99903.75;106551;1257;76803;-85
2024/04/19 10:05:13;;;;;;;3.80;2.90;;;;;;;25.10;43.49;99906.55;106699;1257;70402;-83
2024/04/19 10:07:40;;;;;;;5.10;3.50;;;;;;;25.84;39.86;99908.02;106342;1253;64836;-82
2024/04/19 10:10:08;;;;;;;3.20;2.90;;;;;;;25.02;40.28;99915.46;106515;1252;61310;-86
2024/04/19 10:12:35;;;;;;;3.40;2.90;;;;;;;25.10;40.28;99915.36;106704;1256;61339;-81
2024/04/19 10:15:11;;;;;;;3.80;3.00;;;;;;;23.71;42.20;99922.19;106602;1257;75061;-86
2024/04/19 10:17:39;;;;;;;4.00;2.90;;;;;;;22.68;46.39;99928.86;106495;1251;71163;-83
2024/04/19 10:20:10;;;;;;;4.20;2.50;;;;;;;22.44;51.83;99931.69;106557;1260;73911;-86
2024/04/19 10:22:44;;;;;;;5.40;2.80;;;;;;;22.16;48.73;99934.58;106769;1253;62342;-82
2024/04/19 10:25:12;;;;;;;3.80;2.50;;;;;;;21.87;53.71;99934.55;106701;1256;61462;-83
2024/04/19 10:27:40;;;;;;;2.70;2.40;;;;;;;23.23;47.64;99929.54;106030;1255;1173004;-86
2024/04/19 10:30:11;;;;;;;3.70;2.70;;;;;;;24.37;44.18;99927.52;106830;1251;68389;-87
2024/04/19 10:32:54;;;;;;;4.90;2.20;;;;;;;22.72;45.82;99936.57;106660;1251;73452;-87
2024/04/19 10:35:21;;;;;;;3.80;2.20;;;;;;;23.46;44.53;99942.10;106549;1256;61797;-83
2024/04/19 10:37:50;;;;;;;4.20;2.20;;;;;;;23.49;44.21;99942.96;106589;1251;61211;-82
2024/04/19 10:40:19;;;;;;;3.70;2.00;;;;;;;23.37;44.32;99949.33;106537;1251;73468;-82
2024/04/19 10:42:46;;;;;;;3.00;2.30;;;;;;;22.97;42.52;99948.71;106414;1252;71066;-85
2024/04/19 10:45:14;;;;;;;1.70;1.60;;;;;;;23.37;45.93;99954.88;106649;1251;71945;-83
2024/04/19 10:47:42;;;;;;;3.20;2.20;;;;;;;23.00;46.33;99955.41;106759;1254;61266;-86
2024/04/19 10:50:10;;;;;;;3.70;1.90;;;;;;;24.76;41.26;99951.74;106578;1251;62110;-83
2024/04/19 10:52:37;;;;;;;2.30;1.80;;;;;;;26.12;39.55;99961.02;106653;1251;76561;-81
2024/04/19 10:55:05;;;;;;;1.70;1.60;;;;;;;24.53;41.71;99972.48;106422;1256;71059;-84
2024/04/19 10:57:33;;;;;;;1.60;1.50;;;;;;;24.96;41.38;99972.50;106718;1257;74735;-87
2024/04/19 11:00:00;;;;;;;2.20;1.60;;;;;;;24.53;40.91;99979.90;106567;1252;59553;-82
2024/04/19 11:02:30;;;;;;;2.60;1.70;;;;;;;23.47;43.00;99989.61;106608;1251;61109;-86
2024/04/19 11:04:59;;;;;;;2.10;1.90;;;;;;;23.22;44.19;99991.39;106591;1257;73620;-83
2024/04/19 11:07:27;;;;;;;2.20;1.80;;;;;;;22.17;49.06;100002.61;106571;1255;68726;-83
2024/04/19 11:09:55;;;;;;;2.20;1.30;;;;;;;23.88;41.71;99997.50;106502;1257;73610;-86
2024/04/19 11:12:23;;;;;;;1.50;1.40;;;;;;;25.40;37.85;99993.23;106643;1254;61330;-85
2024/04/19 11:14:51;;;;;;;1.00;0.90;;;;;;;25.40;38.83;100001.41;106787;1256;61195;-83
2024/04/19 11:17:19;;;;;;;1.30;1.10;;;;;;;23.25;42.52;100009.42;106824;1256;74744;-83
2024/04/19 11:19:46;;;;;;;1.30;1.10;;;;;;;22.55;47.25;100012.67;106598;1257;71381;-82
2024/04/19 11:22:14;;;;;;;2.40;1.20;;;;;;;23.46;43.92;100007.59;106567;1257;74872;-88
2024/04/19 11:24:42;;;;;;;1.50;0.90;;;;;;;24.33;43.03;100003.84;106701;1251;61346;-82
2024/04/19 11:27:12;;;;;;;1.80;1.10;;;;;;;25.82;39.72;100000.52;106612;1253;61192;-81
2024/04/19 11:29:40;;;;;;;1.60;1.10;;;;;;;26.26;39.12;100001.10;106485;1251;65061;-82
2024/04/19 11:32:08;;;;;;;2.50;1.10;;;;;;;26.08;35.48;99999.23;106649;1251;61342;-83
2024/04/19 11:34:35;;;;;;;1.20;0.90;;;;;;;24.48;37.81;100006.20;106594;1251;74810;-83